createdAt,value
2022-08-19T00:02:38.189Z,20.30
2022-08-19T00:05:51.283Z,20.45
2022-08-19T00:08:52.723Z,20.42
2022-08-19T00:11:56.657Z,18.75
2022-08-19T00:14:57.793Z,19.50
2022-08-19T00:17:58.592Z,20.33
2022-08-19T00:21:00.610Z,21.67
2022-08-19T00:24:02.285Z,22.20
2022-08-19T00:27:26.490Z,21.17
2022-08-19T00:30:24.823Z,21.08
2022-08-19T00:33:26.063Z,21.50
2022-08-19T00:36:26.984Z,20.65
2022-08-19T00:39:27.931Z,21.75
2022-08-19T00:42:29.574Z,22.73
2022-08-19T00:45:36.915Z,23.30
2022-08-19T00:48:38.332Z,23.55
2022-08-19T00:51:40.067Z,24.42
2022-08-19T00:54:42.650Z,26.70
2022-08-19T00:57:55.667Z,25.17
2022-08-19T01:00:56.925Z,26.50
2022-08-19T01:03:58.803Z,27.48
2022-08-19T01:07:03.380Z,28.77
2022-08-19T01:10:11.760Z,27.85
2022-08-19T01:13:15.012Z,27.70
2022-08-19T01:16:20.087Z,29.13
2022-08-19T01:19:43.541Z,30.95
2022-08-19T01:22:51.587Z,29.85
2022-08-19T01:25:54.820Z,27.92
2022-08-19T01:29:01.029Z,29.48
2022-08-19T01:32:03.193Z,27.20
2022-08-19T01:35:06.130Z,30.27
2022-08-19T01:38:20.023Z,28.02
2022-08-19T01:41:21.421Z,27.08
2022-08-19T01:44:25.153Z,28.38
2022-08-19T01:47:26.409Z,27.23
2022-08-19T01:50:28.808Z,28.38
2022-08-19T01:53:33.796Z,27.65
2022-08-19T01:56:35.115Z,27.85
2022-08-19T01:59:37.614Z,28.55
2022-08-19T02:02:39.106Z,26.05
2022-08-19T02:05:43.970Z,26.88
2022-08-19T02:08:47.230Z,26.75
2022-08-19T02:11:49.069Z,25.67
2022-08-19T02:14:50.092Z,26.42
2022-08-19T02:17:51.487Z,28.52
2022-08-19T02:20:52.254Z,27.33
2022-08-19T02:23:53.804Z,27.90
2022-08-19T02:26:55.001Z,28.88
2022-08-19T02:29:56.059Z,29.48
2022-08-19T02:32:57.947Z,27.52
2022-08-19T02:35:58.872Z,28.73
2022-08-19T02:38:59.907Z,30.38
2022-08-19T02:42:00.713Z,31.48
2022-08-19T02:45:01.924Z,28.95
2022-08-19T02:48:05.385Z,30.00
2022-08-19T02:51:26.747Z,29.45
2022-08-19T02:54:28.402Z,30.77
2022-08-19T02:57:32.554Z,30.70
2022-08-19T03:00:33.707Z,30.60
2022-08-19T03:03:41.007Z,32.13
2022-08-19T03:06:45.589Z,32.55
2022-08-19T03:09:46.656Z,32.38
2022-08-19T03:12:47.639Z,33.25
2022-08-19T03:15:50.171Z,31.58
2022-08-19T03:18:52.115Z,32.20
2022-08-19T03:21:53.375Z,31.88
2022-08-19T03:24:54.794Z,31.70
2022-08-19T03:27:56.072Z,31.83
2022-08-19T03:31:05.507Z,30.85
2022-08-19T03:34:30.718Z,31.73
2022-08-19T03:37:32.015Z,32.95
2022-08-19T03:40:37.560Z,31.38
2022-08-19T03:43:41.388Z,33.30
2022-08-19T03:46:44.526Z,31.80
2022-08-19T03:49:46.228Z,33.92
2022-08-19T03:52:53.874Z,34.03
2022-08-19T03:58:59.330Z,32.58
2022-08-19T04:02:10.225Z,32.47
2022-08-19T04:05:11.903Z,32.05
2022-08-19T04:08:14.355Z,33.78
2022-08-19T04:11:24.645Z,32.92
2022-08-19T04:14:45.477Z,31.73
2022-08-19T04:17:47.167Z,32.60
2022-08-19T04:20:49.822Z,33.65
2022-08-19T04:23:50.872Z,34.15
2022-08-19T04:26:53.000Z,33.28
2022-08-19T04:29:56.298Z,34.13
2022-08-19T04:32:57.265Z,34.25
2022-08-19T04:35:59.411Z,33.00
2022-08-19T04:39:08.956Z,37.53
2022-08-19T04:42:30.718Z,33.63
2022-08-19T04:45:39.662Z,31.92
2022-08-19T04:48:49.427Z,34.10
2022-08-19T04:51:55.039Z,33.08
2022-08-19T04:54:56.499Z,34.08
2022-08-19T04:57:57.627Z,34.95
2022-08-19T05:00:59.254Z,35.03
2022-08-19T05:04:02.734Z,35.08
2022-08-19T05:07:03.695Z,36.78
2022-08-19T05:10:07.648Z,34.75
2022-08-19T05:13:10.235Z,33.20
2022-08-19T05:16:13.888Z,34.90
2022-08-19T05:19:33.858Z,35.17
2022-08-19T05:22:38.402Z,33.97
2022-08-19T05:25:41.948Z,36.20
2022-08-19T05:28:43.525Z,36.20
2022-08-19T05:31:45.953Z,36.63
2022-08-19T05:34:47.236Z,35.80
2022-08-19T05:37:48.371Z,34.05
2022-08-19T05:43:59.256Z,34.95
2022-08-19T05:47:03.151Z,38.55
2022-08-19T05:50:05.496Z,37.28
2022-08-19T05:53:07.020Z,38.17
2022-08-19T05:56:12.552Z,37.67
2022-08-19T05:59:13.962Z,35.47
2022-08-19T06:02:15.264Z,35.65
2022-08-19T06:05:16.587Z,34.15
2022-08-19T06:08:19.537Z,34.08
2022-08-19T06:11:56.128Z,33.70
2022-08-19T06:15:01.558Z,33.08
2022-08-19T06:18:03.060Z,34.58
2022-08-19T06:21:05.513Z,31.08
2022-08-19T06:24:10.918Z,30.30
2022-08-19T06:27:11.773Z,32.22
2022-08-19T06:30:14.602Z,30.50
2022-08-19T06:33:15.872Z,30.52
2022-08-19T06:36:35.026Z,31.63
2022-08-19T06:39:40.165Z,33.75
2022-08-19T06:42:44.816Z,31.20
2022-08-19T06:45:55.705Z,33.03
2022-08-19T06:48:59.478Z,33.53
2022-08-19T06:52:02.172Z,31.90
2022-08-19T06:55:06.240Z,32.67
2022-08-19T06:58:07.826Z,32.53
2022-08-19T07:01:09.894Z,32.53
2022-08-19T07:04:12.136Z,32.78
2022-08-19T07:07:19.751Z,30.77
2022-08-19T07:10:22.619Z,31.85
2022-08-19T07:13:27.118Z,32.65
2022-08-19T07:16:29.725Z,31.50
2022-08-19T07:19:30.811Z,30.38
2022-08-19T07:22:32.853Z,32.58
2022-08-19T07:25:38.884Z,30.58
2022-08-19T07:28:46.042Z,30.30
2022-08-19T07:31:57.029Z,32.53
2022-08-19T07:34:58.134Z,30.58
2022-08-19T07:38:03.661Z,31.15
2022-08-19T07:41:05.222Z,33.60
2022-08-19T07:44:09.324Z,32.10
2022-08-19T07:47:47.383Z,31.40
2022-08-19T07:50:31.644Z,31.02
2022-08-19T07:53:39.639Z,30.15
2022-08-19T07:56:41.244Z,30.75
2022-08-19T07:59:42.584Z,31.25
2022-08-19T08:02:43.789Z,30.92
2022-08-19T08:06:04.446Z,29.90
2022-08-19T08:09:13.437Z,29.75
2022-08-19T08:12:34.637Z,29.67
2022-08-19T08:15:42.146Z,28.10
2022-08-19T08:18:50.529Z,28.33
2022-08-19T08:21:58.096Z,25.40
2022-08-19T08:25:12.617Z,27.48
2022-08-19T08:28:17.706Z,25.40
2022-08-19T08:31:22.199Z,23.30
2022-08-19T08:34:23.638Z,23.13
2022-08-19T08:37:24.658Z,24.73
2022-08-19T08:40:39.408Z,25.02
2022-08-19T08:43:45.463Z,24.67
2022-08-19T08:46:52.991Z,24.30
2022-08-19T08:50:07.940Z,22.27
2022-08-19T08:53:11.492Z,22.00
2022-08-19T08:56:14.156Z,21.77
2022-08-19T08:59:52.914Z,19.23
2022-08-19T09:02:56.239Z,16.58
2022-08-19T09:06:25.961Z,18.20
2022-08-19T09:09:48.200Z,19.20
2022-08-19T09:13:09.410Z,18.10
2022-08-19T09:16:28.016Z,19.83
2022-08-19T09:19:29.507Z,20.77
2022-08-19T09:22:30.501Z,21.23
2022-08-19T09:25:33.700Z,20.70
2022-08-19T09:28:34.563Z,20.58
2022-08-19T09:31:35.760Z,22.10
2022-08-19T09:34:38.127Z,18.95
2022-08-19T09:37:45.132Z,18.35
2022-08-19T09:40:46.221Z,16.40
2022-08-19T09:43:56.909Z,15.75
2022-08-19T09:46:57.816Z,15.82
2022-08-19T09:49:59.180Z,14.90
2022-08-19T09:53:00.777Z,14.48
2022-08-19T09:56:04.226Z,15.27
2022-08-19T09:59:05.643Z,16.15
2022-08-19T10:02:11.204Z,17.02
2022-08-19T10:05:31.513Z,16.52
2022-08-19T10:08:37.759Z,15.43
2022-08-19T10:11:52.546Z,16.65
2022-08-19T10:14:55.485Z,17.20
2022-08-19T10:17:57.126Z,17.27
2022-08-19T10:21:11.525Z,17.90
2022-08-19T10:24:12.914Z,20.17
2022-08-19T10:27:15.285Z,17.75
2022-08-19T10:30:17.375Z,18.40
2022-08-19T10:33:38.228Z,18.13
2022-08-19T10:36:56.079Z,18.77
2022-08-19T10:39:57.794Z,21.27
2022-08-19T10:42:58.692Z,19.20
2022-08-19T10:46:00.416Z,20.30
2022-08-19T10:49:03.780Z,20.00
2022-08-19T10:52:32.231Z,19.45
2022-08-19T10:56:05.837Z,19.58
2022-08-19T10:59:06.967Z,19.15
2022-08-19T11:02:13.181Z,19.63
2022-08-19T11:05:15.873Z,17.80
2022-08-19T11:08:23.557Z,16.13
2022-08-19T11:11:25.026Z,14.00
2022-08-19T11:14:26.514Z,15.60
2022-08-19T11:17:28.270Z,13.45
2022-08-19T11:20:28.992Z,16.38
2022-08-19T11:23:30.206Z,16.92
2022-08-19T11:26:32.611Z,17.83
2022-08-19T11:29:35.515Z,20.98
2022-08-19T11:32:37.612Z,15.52
2022-08-19T11:35:42.223Z,14.35
2022-08-19T11:38:43.777Z,13.63
2022-08-19T11:41:45.146Z,15.60
2022-08-19T11:44:47.858Z,15.45
2022-08-19T11:47:49.481Z,16.58
2022-08-19T11:50:58.311Z,19.55
2022-08-19T11:54:01.183Z,19.00
2022-08-19T11:57:05.102Z,16.88
2022-08-19T12:00:08.416Z,19.55
2022-08-19T12:03:09.740Z,23.52
2022-08-19T12:06:15.273Z,22.38
2022-08-19T12:09:17.214Z,23.05
2022-08-19T12:12:18.081Z,20.20
2022-08-19T12:15:19.348Z,21.70
2022-08-19T12:18:20.567Z,24.10
2022-08-19T12:21:29.115Z,23.40
2022-08-19T12:24:33.518Z,24.15
2022-08-19T12:27:40.820Z,25.60
2022-08-19T12:30:43.004Z,27.42
2022-08-19T12:33:44.435Z,28.98
2022-08-19T12:36:45.143Z,28.67
2022-08-19T12:39:46.556Z,30.13
2022-08-19T12:42:51.047Z,30.35
2022-08-19T12:45:52.195Z,32.55
2022-08-19T12:48:55.355Z,33.08
2022-08-19T12:51:57.062Z,34.63
2022-08-19T12:54:58.554Z,35.25
2022-08-19T12:58:00.238Z,37.65
2022-08-19T13:01:07.472Z,33.10
2022-08-19T13:07:10.267Z,33.65
2022-08-19T13:10:16.633Z,35.78
2022-08-19T13:13:18.137Z,37.50
2022-08-19T13:16:21.363Z,35.60
2022-08-19T13:19:24.600Z,36.20
2022-08-19T13:22:26.094Z,35.92
2022-08-19T13:25:27.747Z,36.58
2022-08-19T13:28:49.321Z,36.50
2022-08-19T13:32:19.242Z,36.30
2022-08-19T13:35:20.388Z,31.90
2022-08-19T13:38:23.249Z,35.97
2022-08-19T13:41:24.486Z,35.78
2022-08-19T13:44:25.513Z,37.60
2022-08-19T13:47:26.753Z,36.97
2022-08-19T13:50:34.511Z,36.88
2022-08-19T13:53:35.673Z,37.97
2022-08-19T13:56:45.095Z,38.80
2022-08-19T13:59:45.895Z,38.78
2022-08-19T14:02:53.170Z,38.88
2022-08-19T14:05:54.240Z,40.17
2022-08-19T14:08:55.380Z,39.85
2022-08-19T14:11:56.489Z,39.55
2022-08-19T14:14:57.440Z,40.22
2022-08-19T14:17:58.982Z,39.35
2022-08-19T14:20:59.788Z,41.67
2022-08-19T14:24:00.442Z,41.40
2022-08-19T14:27:01.649Z,40.45
2022-08-19T14:30:05.349Z,41.60
2022-08-19T14:33:08.384Z,43.45
2022-08-19T14:36:09.814Z,40.90
2022-08-19T14:39:10.731Z,42.70
2022-08-19T14:42:12.704Z,43.45
2022-08-19T14:45:14.158Z,43.72
2022-08-19T14:48:19.275Z,43.83
2022-08-19T14:51:24.438Z,43.97
2022-08-19T14:54:25.300Z,43.85
2022-08-19T14:57:28.655Z,44.15
2022-08-19T15:00:29.725Z,45.15
2022-08-19T15:03:32.819Z,46.22
2022-08-19T15:06:34.729Z,44.75
2022-08-19T15:09:35.741Z,44.65
2022-08-19T15:12:40.859Z,42.70
2022-08-19T15:15:42.219Z,43.45
2022-08-19T15:18:48.282Z,45.75
2022-08-19T15:21:50.095Z,44.80
2022-08-19T15:24:51.208Z,47.20
2022-08-19T15:27:54.098Z,46.38
2022-08-19T15:30:55.245Z,45.10
2022-08-19T15:33:58.965Z,46.80
2022-08-19T15:37:00.302Z,48.85
2022-08-19T15:40:01.145Z,45.97
2022-08-19T15:43:02.673Z,48.50
2022-08-19T15:46:04.045Z,43.08
2022-08-19T15:49:06.760Z,47.42
2022-08-19T15:52:08.188Z,45.05
2022-08-19T15:55:09.456Z,49.97
2022-08-19T15:58:36.077Z,48.10
2022-08-19T16:01:55.644Z,45.95
2022-08-19T16:05:15.296Z,47.60
2022-08-19T16:08:16.682Z,45.90
2022-08-19T16:11:22.844Z,49.33
2022-08-19T16:14:25.280Z,48.10
2022-08-19T16:17:26.325Z,49.45
2022-08-19T16:20:28.145Z,50.10
2022-08-19T16:23:29.219Z,51.88
2022-08-19T16:26:31.666Z,52.80
2022-08-19T16:29:39.089Z,52.38
2022-08-19T16:32:44.136Z,50.35
2022-08-19T16:35:45.151Z,53.15
2022-08-19T16:38:54.628Z,52.03
2022-08-19T16:41:55.916Z,49.40
2022-08-19T16:44:57.751Z,50.95
2022-08-19T16:47:58.946Z,50.40
2022-08-19T16:51:01.296Z,52.60
2022-08-19T16:54:05.517Z,49.97
2022-08-19T16:57:06.919Z,51.70
2022-08-19T17:00:14.070Z,50.03
2022-08-19T17:03:15.746Z,48.78
2022-08-19T17:06:21.601Z,50.33
2022-08-19T17:09:26.035Z,53.28
2022-08-19T17:12:30.811Z,53.13
2022-08-19T17:15:34.085Z,54.83
2022-08-19T17:18:35.601Z,55.67
2022-08-19T17:21:38.039Z,54.30
2022-08-19T17:24:40.646Z,53.75
2022-08-19T17:27:42.188Z,52.60
2022-08-19T17:30:44.587Z,48.20
2022-08-19T17:33:48.488Z,51.70
2022-08-19T17:36:49.833Z,51.15
2022-08-19T17:39:50.989Z,45.17
2022-08-19T17:42:54.527Z,45.50
2022-08-19T17:45:55.619Z,46.65
2022-08-19T17:48:57.799Z,45.45
2022-08-19T17:51:59.713Z,43.90
2022-08-19T17:55:02.072Z,45.28
2022-08-19T17:58:05.395Z,44.55
2022-08-19T18:01:14.840Z,47.35
2022-08-19T18:04:19.007Z,47.50
2022-08-19T18:07:21.824Z,38.15
2022-08-19T18:10:32.487Z,45.55
2022-08-19T18:13:36.565Z,42.67
2022-08-19T18:16:39.485Z,41.72
2022-08-19T18:19:43.855Z,38.03
2022-08-19T18:22:48.667Z,39.70
2022-08-19T18:25:50.580Z,40.30
2022-08-19T18:28:52.458Z,40.72
2022-08-19T18:31:54.242Z,39.97
2022-08-19T18:34:56.292Z,40.47
2022-08-19T18:38:22.830Z,40.03
2022-08-19T18:41:42.476Z,37.28
2022-08-19T18:45:01.445Z,36.97
2022-08-19T18:48:27.691Z,34.50
2022-08-19T18:51:32.450Z,35.75
2022-08-19T18:54:33.440Z,37.38
2022-08-19T18:57:34.919Z,36.65
2022-08-19T19:00:37.055Z,38.85
2022-08-19T19:03:45.493Z,38.53
2022-08-19T19:06:47.073Z,37.88
2022-08-19T19:09:51.466Z,38.55
2022-08-19T19:12:52.850Z,38.97
2022-08-19T19:15:54.611Z,37.33
2022-08-19T19:18:55.504Z,37.55
2022-08-19T19:21:57.983Z,38.05
2022-08-19T19:24:59.667Z,38.72
2022-08-19T19:28:00.884Z,38.92
2022-08-19T19:31:02.251Z,37.47
2022-08-19T19:34:03.278Z,38.65
2022-08-19T19:37:04.361Z,37.42
2022-08-19T19:40:06.030Z,38.45
2022-08-19T19:43:07.271Z,33.40
2022-08-19T19:46:09.198Z,35.22
2022-08-19T19:49:12.275Z,36.60
2022-08-19T19:52:13.725Z,34.78
2022-08-19T19:55:18.349Z,34.58
2022-08-19T19:58:21.234Z,32.00
2022-08-19T20:01:30.335Z,32.83
2022-08-19T20:04:31.357Z,32.45
2022-08-19T20:07:51.370Z,33.47
2022-08-19T20:10:52.362Z,32.50
2022-08-19T20:13:53.751Z,32.05
2022-08-19T20:16:56.542Z,32.13
2022-08-19T20:19:58.193Z,30.48
2022-08-19T20:22:59.299Z,31.30
2022-08-19T20:26:00.419Z,30.10
2022-08-19T20:29:11.291Z,28.13
2022-08-19T20:32:20.640Z,27.98
2022-08-19T20:35:21.878Z,29.33
2022-08-19T20:38:23.616Z,28.75
2022-08-19T20:41:25.204Z,28.42
2022-08-19T20:44:26.259Z,28.10
2022-08-19T20:47:29.762Z,31.40
2022-08-19T20:50:35.042Z,26.88
2022-08-19T20:53:36.759Z,27.60
2022-08-19T20:56:37.555Z,28.50
2022-08-19T20:59:40.462Z,28.52
2022-08-19T21:02:41.653Z,27.50
2022-08-19T21:05:42.660Z,26.95
2022-08-19T21:08:43.612Z,26.85
2022-08-19T21:11:46.825Z,28.00
2022-08-19T21:14:48.186Z,27.20
2022-08-19T21:17:51.578Z,25.42
2022-08-19T21:20:54.933Z,26.20
2022-08-19T21:23:55.977Z,26.27
2022-08-19T21:26:56.888Z,25.08
2022-08-19T21:29:58.251Z,25.13
2022-08-19T21:33:01.575Z,24.25
2022-08-19T21:36:03.747Z,24.15
2022-08-19T21:39:05.386Z,22.15
2022-08-19T21:42:06.529Z,23.10
2022-08-19T21:45:08.679Z,22.13
2022-08-19T21:48:09.851Z,22.73
2022-08-19T21:51:11.048Z,23.38
2022-08-19T21:54:14.222Z,22.58
2022-08-19T21:57:15.332Z,21.58
2022-08-19T22:00:22.721Z,21.40
2022-08-19T22:06:26.097Z,21.73
2022-08-19T22:09:27.065Z,19.92
2022-08-19T22:12:33.263Z,20.75
2022-08-19T22:15:35.024Z,21.98
2022-08-19T22:18:35.911Z,19.95
2022-08-19T22:21:40.348Z,19.77
2022-08-19T22:24:41.948Z,20.52
2022-08-19T22:27:42.774Z,19.02
2022-08-19T22:30:47.287Z,20.25
2022-08-19T22:33:52.342Z,19.52
2022-08-19T22:36:53.424Z,18.92
2022-08-19T22:39:55.151Z,20.13
2022-08-19T22:43:15.127Z,20.17
2022-08-19T22:46:17.513Z,21.20
2022-08-19T22:49:19.125Z,21.83
2022-08-19T22:52:20.416Z,20.90
2022-08-19T22:55:21.680Z,20.40
2022-08-19T22:58:28.022Z,20.42
2022-08-19T23:01:30.785Z,20.23
2022-08-19T23:04:32.008Z,20.65
2022-08-19T23:07:33.310Z,19.55
2022-08-19T23:10:34.705Z,20.08
2022-08-19T23:13:35.727Z,20.48
2022-08-19T23:16:36.786Z,21.95
2022-08-19T23:19:38.642Z,20.90
2022-08-19T23:22:42.156Z,20.90
2022-08-19T23:25:43.242Z,22.15
2022-08-19T23:29:02.329Z,22.38
2022-08-19T23:32:07.143Z,21.08
2022-08-19T23:35:08.556Z,20.83
2022-08-19T23:38:10.345Z,20.75
2022-08-19T23:41:14.143Z,21.20
2022-08-19T23:44:15.128Z,21.55
2022-08-19T23:47:16.728Z,22.10
2022-08-19T23:50:19.820Z,22.02
2022-08-19T23:53:21.595Z,22.42
2022-08-19T23:56:22.815Z,22.67
2022-08-19T23:59:23.653Z,22.10
